Data for 09/28/2005

Time Sea-Level Adjusted Pressure Absolute Pressure Temperature Relative Humidity Dew Point   
(mb) (inHg) (mb) (inHg) (C) (F) (%) (C) (F)
00:05 1028 30.36 857 25.31 3.7 38.7 83 1.2 34.1
00:10 1028 30.36 857 25.31 3.7 38.7 83 1.1 34
00:15 1028 30.36 857 25.31 3.7 38.7 83 1.1 34.1
00:20 1028 30.36 857 25.31 3.7 38.6 83 1.1 33.9
00:25 1028 30.36 857 25.31 3.7 38.6 82 1 33.7
00:30 1028 30.36 857 25.31 3.6 38.5 83 1.1 33.9
00:35 1028 30.36 857 25.31 3.4 38.1 83 0.8 33.5
00:40 1028 30.36 857 25.31 3.3 37.9 82 0.5 33
00:45 1028 30.36 857 25.31 3.2 37.7 83 0.5 32.9
00:50 1028 30.36 857 25.31 2.9 37.3 84 0.5 32.8
00:55 1028 30.36 857 25.31 2.7 36.8 85 0.3 32.6
01:00 1028 30.36 857 25.31 2.9 37.1 83 0.3 32.6
01:05 1028 30.36 857 25.31 2.8 37 83 0.2 32.4
01:10 1028 30.36 857 25.31 2.7 36.9 84 0.2 32.4
01:15 1028 30.36 857 25.31 2.7 36.8 83 0.1 32.2
01:20 1028 30.36 857 25.31 2.7 36.9 83 0.1 32.2
01:25 1028 30.36 857 25.31 2.8 37.1 82 0.1 32.1
01:30 1028 30.36 857 25.31 3 37.3 82 0.1 32.2
01:35 1028 30.36 857 25.31 3.1 37.6 80 0.1 32.1
01:40 1028 30.36 857 25.31 3.2 37.7 81 0.3 32.5
01:45 1028 30.36 857 25.31 2.9 37.1 83 0.3 32.6
01:50 1028 30.36 857 25.31 2.5 36.6 85 0.2 32.4
01:55 1028 30.36 857 25.31 2.5 36.5 85 0.2 32.4
02:00 1028 30.36 857 25.31 2.5 36.5 84 0.1 32.2
02:05 1028 30.36 857 25.31 2.6 36.7 84 0.2 32.3
02:10 1028 30.36 857 25.31 2.6 36.8 84 0.1 32.3
02:15 1028 30.36 857 25.31 2.9 37.3 82 0.1 32.3
02:20 1028 30.36 857 25.31 3.2 37.8 81 0.2 32.4
02:25 1028 30.36 857 25.31 3.1 37.6 81 0.2 32.4
02:30 1028 30.36 857 25.31 2.9 37.2 82 0.2 32.4
02:35 1028 30.36 857 25.31 2.7 36.8 84 0.2 32.4
02:40 1028 30.36 857 25.31 2.5 36.5 84 0.1 32.2
02:45 1028 30.36 857 25.31 2.4 36.3 85 0.1 32.2
02:50 1028 30.36 857 25.31 2.3 36.1 85 0 32
02:55 1028 30.36 857 25.31 2.2 36 85 -0 31.9
03:00 1028 30.36 857 25.31 2.1 35.7 86 -0 32
03:05 1028 30.36 857 25.31 1.8 35.3 88 0 32
03:10 1028 30.36 857 25.31 1.6 34.9 88 -0.1 31.8
03:15 1028 30.36 857 25.31 1.6 34.9 88 -0.2 31.6
03:20 1028 30.36 857 25.31 1.6 34.9 88 -0.2 31.7
03:25 1028 30.36 857 25.31 1.7 35 87 -0.2 31.6
03:30 1028 30.36 857 25.31 1.6 34.9 88 -0.3 31.5
03:35 1028 30.36 857 25.31 1.7 35 87 -0.2 31.6
03:40 1028 30.36 857 25.31 1.6 34.8 87 -0.3 31.4
03:45 1028 30.36 857 25.31 1.5 34.7 87 -0.4 31.3
03:50 1028 30.36 857 25.31 1.4 34.5 89 -0.3 31.4
03:55 1028 30.36 857 25.31 1.3 34.3 89 -0.4 31.3
04:00 1028 30.36 857 25.31 1.3 34.3 88 -0.4 31.3
04:05 1028 30.36 857 25.31 1.3 34.3 88 -0.5 31.1
04:10 1028 30.36 857 25.31 1.2 34.2 89 -0.4 31.3
04:15 1028 30.36 857 25.31 1.3 34.3 88 -0.5 31.1
04:20 1028 30.36 857 25.31 1.4 34.5 88 -0.4 31.2
04:25 1028 30.36 857 25.31 1.2 34.2 88 -0.6 31
04:30 1028 30.36 857 25.31 1 33.7 88 -0.7 30.7
04:35 1028 30.36 857 25.31 0.8 33.5 88 -0.9 30.3
04:40 1028 30.36 857 25.31 0.4 32.7 91 -1 30.2
04:45 1028 30.36 857 25.31 0.1 32.1 92 -1 30.1
04:50 1028 30.36 857 25.31 0.2 32.3 92 -1 30.2
04:55 1028 30.36 857 25.31 0.6 33 91 -0.7 30.7
05:00 1028 30.36 857 25.31 0.7 33.3 90 -0.8 30.6
05:05 1028 30.36 857 25.31 0.4 32.7 89 -1.2 29.8
05:10 1028 30.36 857 25.31 -0 32 91 -1.3 29.6
05:15 1028 30.36 857 25.31 -0.2 31.6 92 -1.3 29.6
05:20 1028 30.36 857 25.31 0 32 93 -1 30.1
05:25 1028 30.36 857 25.31 0.3 32.5 91 -1 30.1
05:30 1028 30.36 857 25.31 0.4 32.8 90 -1.1 30
05:35 1028 30.36 857 25.31 0.2 32.4 90 -1.2 29.8
05:40 1028 30.36 857 25.31 0.2 32.3 91 -1.2 29.8
05:45 1028 30.36 857 25.31 0 32.1 91 -1.3 29.7
05:50 1028 30.36 857 25.31 0 32 92 -1.2 29.8
05:55 1028 30.36 857 25.31 -0 32 91 -1.3 29.7
06:00 1028 30.36 857 25.31 -0.1 31.8 92 -1.3 29.7
06:05 1028 30.36 857 25.31 -0.1 31.9 92 -1.2 29.8
06:10 1028 30.36 857 25.31 -0 31.9 92 -1.3 29.7
06:15 1028 30.36 857 25.31 -0.2 31.7 91 -1.4 29.4
06:20 1028 30.36 857 25.31 -0.1 31.9 90 -1.5 29.4
06:25 1028 30.36 857 25.31 -0 31.9 91 -1.4 29.5
06:30 1028 30.36 857 25.31 -0.1 31.8 91 -1.4 29.5
06:35 1028 30.36 857 25.31 -0.2 31.6 92 -1.4 29.5
06:40 1028 30.36 857 25.31 -0.2 31.6 92 -1.4 29.6
06:45 1028 30.36 857 25.31 -0.1 31.8 92 -1.2 29.8
06:50 1028 30.36 857 25.31 0.1 32.2 91 -1.1 29.9
06:55 1028 30.36 857 25.31 0.1 32.1 91 -1.3 29.7
07:00 1028 30.36 857 25.31 -0 31.9 90 -1.4 29.4
07:05 1028 30.36 857 25.31 -0.2 31.6 91 -1.5 29.3
07:10 1028 30.36 857 25.31 -0.3 31.5 91 -1.5 29.3
07:15 1028 30.36 857 25.31 -0.4 31.2 92 -1.6 29.1
07:20 1028 30.36 857 25.31 -0.5 31 92 -1.7 29
07:25 1028 30.36 857 25.31 -0.6 30.9 93 -1.6 29.1
07:30 1028 30.36 857 25.31 -0.3 31.5 92 -1.4 29.5
07:35 1028 30.36 857 25.31 0.2 32.4 89 -1.3 29.6
07:40 1028 30.36 857 25.31 0.4 32.8 88 -1.3 29.7
07:45 1028 30.36 857 25.31 0.4 32.8 88 -1.4 29.5
07:50 1028 30.36 857 25.31 0.3 32.5 88 -1.5 29.3
07:55 1028 30.36 857 25.31 0.3 32.6 88 -1.4 29.4
08:00 1028 30.36 857 25.31 0.4 32.7 88 -1.4 29.4
08:05 1028 30.36 857 25.31 0.7 33.3 87 -1.2 29.8
08:10 1028 30.36 857 25.31 0.9 33.7 85 -1.2 29.8
08:15 1028 30.36 857 25.31 1.3 34.3 84 -1.1 30.1
08:20 1028 30.36 858 25.34 1.6 34.9 84 -0.9 30.4
08:25 1028 30.36 858 25.34 2.2 35.9 80 -0.9 30.5
08:30 1028 30.36 858 25.34 2.6 36.7 79 -0.6 30.8
08:35 1028 30.36 858 25.34 3.1 37.6 77 -0.6 31
08:40 1028 30.36 858 25.34 3.3 38 77 -0.3 31.4
08:45 1028 30.36 858 25.34 3.5 38.3 76 -0.4 31.3
08:50 1028 30.36 858 25.34 3.5 38.3 75 -0.5 31.1
08:55 1028 30.36 858 25.34 4.1 39.4 73 -0.3 31.4
09:00 1028 30.36 858 25.34 4.6 40.3 72 -0 32
09:05 1028 30.36 858 25.34 5 40.9 71 0.2 32.3
09:10 1028 30.36 858 25.34 5 41.1 73 0.5 32.9
09:15 1028 30.36 858 25.34 5.3 41.6 70 0.4 32.7
09:20 1029 30.39 858 25.34 5.8 42.5 68 0.5 32.9
09:25 1029 30.39 858 25.34 5.9 42.6 68 0.5 32.9
09:30 1029 30.39 858 25.34 5.9 42.7 69 0.6 33.1
09:35 1029 30.39 858 25.34 5.9 42.6 69 0.6 33.1
09:40 1029 30.39 858 25.34 6.6 43.8 66 0.8 33.4
09:45 1028 30.36 858 25.34 6.5 43.8 66 0.7 33.2
09:50 1028 30.36 858 25.34 6.7 44 66 0.8 33.5
09:55 1028 30.36 858 25.34 6.5 43.8 67 0.8 33.4
10:00 1028 30.36 857 25.31 6.8 44.2 65 0.6 33.1
10:05 1028 30.36 857 25.31 7.6 45.7 62 0.8 33.4
10:10 1028 30.36 858 25.34 7.8 46.1 63 1.2 34.1
10:15 1028 30.36 858 25.34 7.9 46.2 62 1 33.8
10:20 1028 30.36 857 25.31 8 46.4 62 1.2 34.1
10:25 1028 30.36 858 25.34 8 46.3 61 0.8 33.5
10:30 1028 30.36 857 25.31 7.2 44.9 64 1 33.7
10:35 1028 30.36 857 25.31 7.5 45.5 62 0.7 33.3
10:40 1028 30.36 857 25.31 8.4 47.2 58 0.8 33.4
10:45 1028 30.36 857 25.31 7.9 46.1 62 1.1 34
10:50 1028 30.36 857 25.31 8.3 46.9 60 1.1 34
10:55 1028 30.36 857 25.31 9.1 48.4 58 1.3 34.3
11:00 1028 30.36 857 25.31 9.5 49.1 57 1.4 34.6
11:05 1028 30.36 857 25.31 9 48.2 60 1.7 35
11:10 1028 30.36 857 25.31 9 48.3 58 1.2 34.2
11:15 1028 30.36 857 25.31 9.2 48.5 59 1.6 34.9
11:20 1028 30.36 857 25.31 9.1 48.5 57 1.1 33.9
11:25 1028 30.36 857 25.31 9.6 49.2 57 1.5 34.8
11:30 1028 30.36 857 25.31 10.4 50.7 54 1.5 34.6
11:35 1028 30.36 857 25.31 11 51.7 52 1.5 34.8
11:40 1028 30.36 857 25.31 11.5 52.7 48 0.8 33.5
11:45 1028 30.36 857 25.31 11.8 53.3 47 1.1 33.9
11:50 1028 30.36 857 25.31 11.9 53.5 48 1.2 34.2
11:55 1028 30.36 857 25.31 11.5 52.8 49 1.3 34.4
12:00 1028 30.36 857 25.31 12.2 53.9 46 1.1 34
12:05 1028 30.36 857 25.31 12.5 54.5 46 1.4 34.5
12:10 1027 30.33 857 25.31 12.4 54.3 46 1.3 34.3
12:15 1027 30.33 857 25.31 13 55.4 44 1 33.7
12:20 1027 30.33 857 25.31 13 55.4 44 1.1 33.9
12:25 1027 30.33 856 25.28 13.6 56.5 42 1.1 33.9
12:30 1027 30.33 856 25.28 13.7 56.6 42 0.9 33.6
12:35 1027 30.33 856 25.28 13.5 56.2 41 0.7 33.2
12:40 1027 30.33 856 25.28 14.3 57.7 39 0.5 33
12:45 1027 30.33 856 25.28 14.2 57.5 41 1.2 34.1
12:50 1027 30.33 856 25.28 14.3 57.8 40 1.1 34
12:55 1027 30.33 856 25.28 14.9 58.8 40 1.7 35
13:00 1027 30.33 856 25.28 15 59.1 40 1.8 35.2
13:05 1027 30.33 856 25.28 14.9 58.8 38 0.7 33.2
13:10 1027 30.33 856 25.28 15.2 59.4 37 0.8 33.4
13:15 1027 30.33 856 25.28 15 59 40 1.7 35.1
13:20 1027 30.33 856 25.28 15.1 59.1 37 0.6 33
13:25 1027 30.33 856 25.28 15.8 60.4 34 -0.1 31.8
13:30 1027 30.33 856 25.28 16.2 61.2 34 0.4 32.7
13:35 1027 30.33 856 25.28 16.4 61.5 32 -0 31.9
13:40 1026 30.3 856 25.28 16.7 62 32 0.1 32.1
13:45 1026 30.3 856 25.28 17.1 62.7 32 0.4 32.7
13:50 1026 30.3 856 25.28 16.6 62 32 0.2 32.3
13:55 1026 30.3 855 25.25 16.7 62 33 0.4 32.7
14:00 1026 30.3 855 25.25 17.1 62.7 31 -0.2 31.6
14:05 1026 30.3 855 25.25 16.1 60.9 31 -0.9 30.4
14:10 1026 30.3 855 25.25 16.5 61.7 28 -1.8 28.7
14:15 1026 30.3 855 25.25 17.7 63.9 27 -1.4 29.5
14:20 1026 30.3 855 25.25 18 64.3 25 -2.2 28.1
14:25 1026 30.3 855 25.25 17.3 63.2 28 -1.3 29.6
14:30 1026 30.3 855 25.25 17.4 63.4 26 -1.9 28.5
14:35 1026 30.3 855 25.25 17.9 64.3 24 -3 26.6
14:40 1025 30.27 855 25.25 18.3 65 22 -3.4 26
14:45 1025 30.27 855 25.25 18.3 65 22 -3.9 24.9
14:50 1025 30.27 855 25.25 18.4 65.1 22 -3.3 26
14:55 1025 30.27 855 25.25 18.8 65.8 23 -2.6 27.4
15:00 1025 30.27 854 25.22 18.8 65.9 21 -3.5 25.6
15:05 1025 30.27 854 25.22 18.9 66 21 -3.9 25
15:10 1025 30.27 854 25.22 18.7 65.7 22 -3.4 25.8
15:15 1025 30.27 854 25.22 18.5 65.3 22 -3.3 26.1
15:20 1025 30.27 854 25.22 18.8 65.8 21 -4 24.8
15:25 1025 30.27 854 25.22 18.6 65.6 22 -3.6 25.5
15:30 1025 30.27 854 25.22 18.8 65.9 21 -3.9 24.9
15:35 1025 30.27 854 25.22 18.7 65.7 22 -3.3 26.1
15:40 1025 30.27 854 25.22 18.7 65.7 21 -3.8 25.2
15:45 1025 30.27 854 25.22 19.1 66.4 21 -3.7 25.3
15:50 1025 30.27 854 25.22 19 66.2 20 -4.1 24.7
15:55 1025 30.27 854 25.22 19.2 66.6 21 -3.5 25.6
16:00 1025 30.27 854 25.22 19.4 66.9 21 -3.1 26.4
16:05 1025 30.27 854 25.22 19.1 66.4 22 -3.2 26.3
16:10 1024 30.24 854 25.22 18.8 65.8 23 -2.5 27.5
16:15 1024 30.24 854 25.22 18.4 65.1 25 -2.1 28.3
16:20 1024 30.24 854 25.22 18.4 65.1 23 -2.8 27
16:25 1024 30.24 854 25.22 18.4 65.2 24 -2.1 28.1
16:30 1024 30.24 853 25.19 18.5 65.3 24 -2.3 27.8
16:35 1024 30.24 853 25.19 18.4 65.2 24 -2.7 27.2
16:40 1024 30.24 853 25.19 18.5 65.3 23 -3 26.5
16:45 1024 30.24 853 25.19 18.7 65.6 23 -3 26.6
16:50 1024 30.24 853 25.19 18.1 64.5 23 -3.1 26.3
16:55 1024 30.24 853 25.19 16.9 62.5 24 -3.7 25.4
17:00 1024 30.24 853 25.19 16.3 61.3 25 -3.8 25.2
17:05 1024 30.24 853 25.19 16.1 61.1 25 -3.5 25.6
17:10 1024 30.24 853 25.19 16.2 61.2 26 -3.5 25.8
17:15 1024 30.24 853 25.19 16.8 62.2 26 -2.5 27.5
17:20 1024 30.24 853 25.19 16.9 62.3 24 -3.5 25.7
17:25 1024 30.24 853 25.19 16.9 62.5 25 -3.4 25.9
17:30 1024 30.24 853 25.19 16.7 62.1 25 -3.4 25.9
17:35 1023 30.21 853 25.19 16.6 62 25 -3.1 26.4
17:40 1023 30.21 853 25.19 16.8 62.3 25 -3 26.7
17:45 1023 30.21 853 25.19 17.2 62.9 25 -2.7 27.1
17:50 1023 30.21 852 25.16 17.4 63.2 25 -2.7 27.2
17:55 1023 30.21 852 25.16 17.3 63.2 24 -3 26.5
18:00 1023 30.21 852 25.16 17.2 62.9 25 -2.8 27
18:05 1023 30.21 852 25.16 17.1 62.7 25 -3 26.7
18:10 1023 30.21 852 25.16 17 62.5 26 -2.7 27.2
18:15 1023 30.21 852 25.16 16.8 62.2 26 -2.5 27.5
18:20 1023 30.21 852 25.16 16.7 62 26 -2.9 26.7
18:25 1023 30.21 852 25.16 16.5 61.6 25 -3.3 26
18:30 1023 30.21 852 25.16 16.1 60.9 26 -3.3 26
18:35 1023 30.21 852 25.16 16 60.7 26 -3.5 25.7
18:40 1023 30.21 852 25.16 16 60.8 26 -3.4 25.9
18:45 1023 30.21 852 25.16 15.8 60.5 27 -3.1 26.4
18:50 1023 30.21 852 25.16 15.5 60 27 -3.5 25.6
18:55 1023 30.21 852 25.16 15.4 59.7 27 -3.5 25.7
19:00 1023 30.21 852 25.16 15.3 59.6 33 -0.7 30.8
19:05 1023 30.21 852 25.16 15.3 59.6 29 -2.6 27.3
19:10 1022 30.18 852 25.16 15 59 29 -3 26.6
19:15 1022 30.18 852 25.16 14.7 58.4 31 -2 28.3
19:20 1022 30.18 852 25.16 14.3 57.8 35 -0.8 30.5
19:25 1022 30.18 852 25.16 13.8 56.8 46 2.6 36.6
19:30 1022 30.18 852 25.16 13.1 55.7 43 0.9 33.6
19:35 1022 30.18 852 25.16 12.3 54.2 44 0.4 32.8
19:40 1022 30.18 852 25.16 12.1 53.8 47 1.2 34.2
19:45 1022 30.18 852 25.16 11.8 53.3 50 1.7 35
19:50 1022 30.18 852 25.16 11.4 52.6 53 2.3 36.2
19:55 1022 30.18 852 25.16 10.7 51.3 55 2.2 36
20:00 1022 30.18 852 25.16 10.5 50.8 55 1.8 35.2
20:05 1022 30.18 852 25.16 10.6 51.1 54 1.7 35.1
20:10 1022 30.18 852 25.16 10.8 51.4 51 1 33.9
20:15 1022 30.18 851 25.13 11 51.8 51 1.4 34.4
20:20 1022 30.18 851 25.13 10.7 51.3 51 1 33.7
20:25 1022 30.18 851 25.13 10.4 50.8 52 1 33.8
20:30 1022 30.18 851 25.13 10.3 50.6 53 1.1 34
20:35 1022 30.18 851 25.13 10.1 50.2 51 0.6 33
20:40 1022 30.18 851 25.13 10 50.1 51 0.5 32.9
20:45 1022 30.18 851 25.13 10 50.1 51 0.3 32.5
20:50 1022 30.18 851 25.13 10.1 50.1 50 0.1 32.1
20:55 1022 30.18 851 25.13 10.1 50.1 48 -0.3 31.4
21:00 1022 30.18 851 25.13 10 50 48 -0.4 31.3
21:05 1022 30.18 851 25.13 9.6 49.3 50 -0.2 31.6
21:10 1022 30.18 851 25.13 9.7 49.5 47 -1.1 30.1
21:15 1022 30.18 851 25.13 9.8 49.7 46 -1.3 29.6
21:20 1022 30.18 851 25.13 9.6 49.2 45 -1.7 29
21:25 1022 30.18 851 25.13 9.1 48.4 48 -1.2 29.8
21:30 1022 30.18 851 25.13 8.8 47.8 45 -2.4 27.6
21:35 1022 30.18 851 25.13 9 48.2 44 -2.6 27.4
21:40 1022 30.18 851 25.13 9.4 48.9 42 -2.7 27.2
21:45 1022 30.18 851 25.13 9.4 49 42 -2.8 27
21:50 1022 30.18 851 25.13 9.3 48.8 44 -2.3 27.9
21:55 1022 30.18 851 25.13 9.1 48.3 44 -2.4 27.7
22:00 1022 30.18 851 25.13 9.2 48.6 39 -4.1 24.6
22:05 1022 30.18 851 25.13 9.2 48.5 39 -4 24.8
22:10 1022 30.18 852 25.16 9.1 48.3 39 -4.2 24.5
22:15 1022 30.18 852 25.16 9 48.2 44 -2.5 27.5
22:20 1022 30.18 852 25.16 9.1 48.3 40 -3.8 25.2
22:25 1022 30.18 852 25.16 9.3 48.8 34 -5.9 21.4
22:30 1022 30.18 852 25.16 10.1 50.1 33 -5.6 21.9
22:35 1022 30.18 852 25.16 10 50 31 -6.4 20.5
22:40 1022 30.18 852 25.16 10.1 50.1 34 -5.1 22.8
22:45 1022 30.18 852 25.16 9.7 49.4 38 -4 24.7
22:50 1022 30.18 852 25.16 9.1 48.3 37 -5 23
22:55 1022 30.18 852 25.16 9.1 48.3 34 -5.9 21.4
23:00 1022 30.18 852 25.16 9.2 48.6 34 -5.7 21.7
23:05 1022 30.18 852 25.16 9.6 49.4 33 -5.8 21.6
23:10 1023 30.21 852 25.16 9.8 49.6 35 -4.8 23.3
23:15 1023 30.21 852 25.16 9.1 48.4 38 -4.5 23.9
23:20 1022 30.18 852 25.16 8.6 47.6 39 -4.7 23.6
23:25 1022 30.18 852 25.16 8.8 47.9 36 -5.4 22.3
23:30 1022 30.18 852 25.16 9 48.1 36 -5.5 22.2
23:35 1022 30.18 852 25.16 9.1 48.4 35 -5.6 21.9
23:40 1022 30.18 852 25.16 9.3 48.7 34 -5.6 21.8
23:45 1022 30.18 852 25.16 9.2 48.5 34 -5.7 21.8
23:50 1022 30.18 851 25.13 9.1 48.3 35 -5.8 21.6
23:55 1022 30.18 851 25.13 9.1 48.3 35 -5.6 21.9
24:00 1022 30.18 851 25.13 9.2 48.5 33 -6.2 20.8